Champaign, IL (61825)

12:21 AM CDT on September 29, 2016 (GMT -0500)
Historic Urbana | | Change Station

Elev 745 ft 40.10 °N, 88.21 °W | Updated 17 seconds ago

Overcast
Overcast
56.3 °F
Feels Like 56.3 °F
N
0.0
Wind Variable Wind from SSE
Gusts 0.0 mph

Today
High -- | Low -- °F
--% Chance of Precip.
Yesterday
High -- | Low -- °F
Precip. -- in
Pressure 30.04 in
Visibility 10.0 miles
Clouds Scattered Clouds 1900 ft
Mostly Cloudy 2400 ft
Overcast 6500 ft
Dew Point 54 °F
Humidity 92%
Rainfall 0.00 in
Snow Depth Not available.
6:47 AM 6:37 PM
Waning Crescent, 3% visible
SPECI KCMI 290506Z AUTO 33011G17KT 10SM SCT019 BKN024 OVC065 13/10 A3004 RMK AO2 T01330100
Pressure 30.04 in
Visibility 10.0 miles
Clouds Scattered Clouds 1900 ft
Mostly Cloudy 2400 ft
Overcast 6500 ft
Dew Point 54 °F
Humidity 92%
Rainfall 0.00 in
Snow Depth Not available.
6:47 AM 6:37 PM
Waning Crescent, 3% visible
SPECI KCMI 290506Z AUTO 33011G17KT 10SM SCT019 BKN024 OVC065 13/10 A3004 RMK AO2 T01330100

10-Day Weather Forecast

Almanac

Astronomy

Sep. 29, 2016 Rise Set
Actual Time
Civil Twilight
Nautical Twilight
Astronomical Twilight
Moon
Length of Visible Light
Length of Day
Tomorrow will be .
, % of the Moon is Illuminated

Today's Extremes

State Highs State Lows

Community

WunderPhotos

Upload Photos

1,942,445 photos uploaded!

WunderBlog® & News

Nearby

Air Quality

  Air Quality AQ Index Pollutant
Not available.

Snow Depth

Station Depth Elevation

Earthquake Activity

City Distance Mag. Time & Date
Minimum magnitude displayed is 2.5.

Coastal Water Temperatures

Place Temperature

Stations

Nearby Weather Stations

Station Location Temp. Windchill Dew Point Humidity Wind Precip. Elev Updated Type
                   

Watches & Warnings

There are currently no watches in effect.